sensor_id;sensor_type;location;lat;lon;timestamp;P1;durP1;ratioP1;P2;durP2;ratioP2
28766;SDS011;15921;52.034;20.650;2024-03-07T00:01:33;39.72;;;18.85;;
28766;SDS011;15921;52.034;20.650;2024-03-07T00:03:59;39.08;;;16.58;;
28766;SDS011;15921;52.034;20.650;2024-03-07T00:06:24;37.85;;;17.63;;
28766;SDS011;15921;52.034;20.650;2024-03-07T00:08:50;35.75;;;17.20;;
28766;SDS011;15921;52.034;20.650;2024-03-07T00:11:16;39.42;;;17.92;;
28766;SDS011;15921;52.034;20.650;2024-03-07T00:13:42;37.83;;;17.17;;
28766;SDS011;15921;52.034;20.650;2024-03-07T00:16:08;34.80;;;17.00;;
28766;SDS011;15921;52.034;20.650;2024-03-07T00:18:35;32.85;;;15.88;;
28766;SDS011;15921;52.034;20.650;2024-03-07T00:21:02;34.17;;;16.60;;
28766;SDS011;15921;52.034;20.650;2024-03-07T00:23:28;34.65;;;17.20;;
28766;SDS011;15921;52.034;20.650;2024-03-07T00:25:53;37.50;;;16.88;;
28766;SDS011;15921;52.034;20.650;2024-03-07T00:28:19;35.95;;;17.25;;
28766;SDS011;15921;52.034;20.650;2024-03-07T00:30:45;35.70;;;16.38;;
28766;SDS011;15921;52.034;20.650;2024-03-07T00:33:12;32.72;;;15.30;;
28766;SDS011;15921;52.034;20.650;2024-03-07T00:35:39;36.58;;;17.98;;
28766;SDS011;15921;52.034;20.650;2024-03-07T00:38:04;36.40;;;17.90;;
28766;SDS011;15921;52.034;20.650;2024-03-07T00:40:30;37.38;;;18.02;;
28766;SDS011;15921;52.034;20.650;2024-03-07T00:42:57;38.80;;;18.40;;
28766;SDS011;15921;52.034;20.650;2024-03-07T00:45:24;40.10;;;18.27;;
28766;SDS011;15921;52.034;20.650;2024-03-07T00:47:50;38.47;;;16.92;;
28766;SDS011;15921;52.034;20.650;2024-03-07T00:50:15;39.38;;;18.83;;
28766;SDS011;15921;52.034;20.650;2024-03-07T00:52:41;39.20;;;17.90;;
28766;SDS011;15921;52.034;20.650;2024-03-07T00:55:07;31.73;;;16.27;;
28766;SDS011;15921;52.034;20.650;2024-03-07T00:57:35;42.05;;;18.55;;
28766;SDS011;15921;52.034;20.650;2024-03-07T01:00:02;35.30;;;17.23;;
28766;SDS011;15921;52.034;20.650;2024-03-07T01:02:28;36.95;;;17.95;;
28766;SDS011;15921;52.034;20.650;2024-03-07T01:04:55;32.78;;;15.93;;
28766;SDS011;15921;52.034;20.650;2024-03-07T01:07:20;38.88;;;17.83;;
28766;SDS011;15921;52.034;20.650;2024-03-07T01:09:48;38.60;;;17.83;;
28766;SDS011;15921;52.034;20.650;2024-03-07T01:12:14;35.13;;;16.92;;
28766;SDS011;15921;52.034;20.650;2024-03-07T01:14:40;36.00;;;16.77;;
28766;SDS011;15921;52.034;20.650;2024-03-07T01:17:06;34.45;;;16.50;;
28766;SDS011;15921;52.034;20.650;2024-03-07T01:19:33;36.38;;;16.90;;
28766;SDS011;15921;52.034;20.650;2024-03-07T01:21:59;34.58;;;16.13;;
28766;SDS011;15921;52.034;20.650;2024-03-07T01:24:24;33.72;;;16.27;;
28766;SDS011;15921;52.034;20.650;2024-03-07T01:26:51;34.28;;;16.90;;
28766;SDS011;15921;52.034;20.650;2024-03-07T01:29:17;34.03;;;16.52;;
28766;SDS011;15921;52.034;20.650;2024-03-07T01:31:42;36.58;;;16.60;;
28766;SDS011;15921;52.034;20.650;2024-03-07T01:34:08;34.97;;;16.73;;
28766;SDS011;15921;52.034;20.650;2024-03-07T01:36:34;35.63;;;17.30;;
28766;SDS011;15921;52.034;20.650;2024-03-07T01:39:00;34.13;;;16.55;;
28766;SDS011;15921;52.034;20.650;2024-03-07T01:41:28;34.60;;;16.77;;
28766;SDS011;15921;52.034;20.650;2024-03-07T01:43:54;40.13;;;16.88;;
28766;SDS011;15921;52.034;20.650;2024-03-07T01:46:20;32.50;;;16.95;;
28766;SDS011;15921;52.034;20.650;2024-03-07T01:48:46;33.92;;;15.82;;
28766;SDS011;15921;52.034;20.650;2024-03-07T01:51:13;36.38;;;15.73;;
28766;SDS011;15921;52.034;20.650;2024-03-07T01:53:39;35.15;;;17.58;;
28766;SDS011;15921;52.034;20.650;2024-03-07T01:56:05;38.05;;;17.20;;
28766;SDS011;15921;52.034;20.650;2024-03-07T01:58:31;35.78;;;16.35;;
28766;SDS011;15921;52.034;20.650;2024-03-07T02:00:57;33.67;;;15.45;;
28766;SDS011;15921;52.034;20.650;2024-03-07T02:03:24;31.65;;;15.68;;
28766;SDS011;15921;52.034;20.650;2024-03-07T02:05:50;35.22;;;16.13;;
28766;SDS011;15921;52.034;20.650;2024-03-07T02:08:16;35.83;;;17.60;;
28766;SDS011;15921;52.034;20.650;2024-03-07T02:10:41;31.10;;;16.92;;
28766;SDS011;15921;52.034;20.650;2024-03-07T02:13:07;37.65;;;16.33;;
28766;SDS011;15921;52.034;20.650;2024-03-07T02:15:33;36.92;;;16.17;;
28766;SDS011;15921;52.034;20.650;2024-03-07T02:17:59;32.00;;;15.55;;
28766;SDS011;15921;52.034;20.650;2024-03-07T02:20:25;35.17;;;17.17;;
28766;SDS011;15921;52.034;20.650;2024-03-07T02:22:53;33.15;;;15.43;;
28766;SDS011;15921;52.034;20.650;2024-03-07T02:25:19;30.63;;;16.05;;
28766;SDS011;15921;52.034;20.650;2024-03-07T02:27:45;33.80;;;15.82;;
28766;SDS011;15921;52.034;20.650;2024-03-07T02:30:11;33.63;;;15.50;;
28766;SDS011;15921;52.034;20.650;2024-03-07T02:32:37;33.85;;;14.98;;
28766;SDS011;15921;52.034;20.650;2024-03-07T02:35:04;32.70;;;15.63;;
28766;SDS011;15921;52.034;20.650;2024-03-07T02:37:30;34.67;;;15.60;;
28766;SDS011;15921;52.034;20.650;2024-03-07T02:39:56;30.35;;;14.75;;
28766;SDS011;15921;52.034;20.650;2024-03-07T02:42:22;37.58;;;15.55;;
28766;SDS011;15921;52.034;20.650;2024-03-07T02:44:47;35.03;;;16.33;;
28766;SDS011;15921;52.034;20.650;2024-03-07T02:47:13;29.88;;;14.07;;
28766;SDS011;15921;52.034;20.650;2024-03-07T02:49:39;27.90;;;13.60;;
28766;SDS011;15921;52.034;20.650;2024-03-07T02:52:04;33.65;;;13.68;;
28766;SDS011;15921;52.034;20.650;2024-03-07T02:54:33;38.22;;;15.55;;
28766;SDS011;15921;52.034;20.650;2024-03-07T02:56:59;33.83;;;15.77;;
28766;SDS011;15921;52.034;20.650;2024-03-07T02:59:25;32.83;;;15.00;;
28766;SDS011;15921;52.034;20.650;2024-03-07T03:01:50;29.80;;;13.93;;
28766;SDS011;15921;52.034;20.650;2024-03-07T03:04:16;33.75;;;15.10;;
28766;SDS011;15921;52.034;20.650;2024-03-07T03:06:42;30.40;;;13.90;;
28766;SDS011;15921;52.034;20.650;2024-03-07T03:09:08;28.75;;;14.40;;
28766;SDS011;15921;52.034;20.650;2024-03-07T03:11:38;28.95;;;14.30;;
28766;SDS011;15921;52.034;20.650;2024-03-07T03:14:04;34.20;;;15.95;;
28766;SDS011;15921;52.034;20.650;2024-03-07T03:16:30;30.50;;;14.25;;
28766;SDS011;15921;52.034;20.650;2024-03-07T03:18:56;31.30;;;15.45;;
28766;SDS011;15921;52.034;20.650;2024-03-07T03:21:22;35.03;;;16.67;;
28766;SDS011;15921;52.034;20.650;2024-03-07T03:23:48;33.83;;;15.27;;
28766;SDS011;15921;52.034;20.650;2024-03-07T03:26:14;34.70;;;16.33;;
28766;SDS011;15921;52.034;20.650;2024-03-07T03:28:41;33.97;;;18.08;;
28766;SDS011;15921;52.034;20.650;2024-03-07T03:31:07;357.85;;;146.25;;
28766;SDS011;15921;52.034;20.650;2024-03-07T03:33:33;245.80;;;103.85;;
28766;SDS011;15921;52.034;20.650;2024-03-07T03:36:00;295.45;;;133.13;;
28766;SDS011;15921;52.034;20.650;2024-03-07T03:38:26;153.32;;;73.60;;
28766;SDS011;15921;52.034;20.650;2024-03-07T03:40:51;59.28;;;29.13;;
28766;SDS011;15921;52.034;20.650;2024-03-07T03:43:17;44.30;;;21.52;;
28766;SDS011;15921;52.034;20.650;2024-03-07T03:45:43;37.67;;;19.90;;
28766;SDS011;15921;52.034;20.650;2024-03-07T03:48:10;37.00;;;19.52;;
28766;SDS011;15921;52.034;20.650;2024-03-07T03:50:36;37.38;;;17.02;;
28766;SDS011;15921;52.034;20.650;2024-03-07T03:53:02;45.03;;;16.00;;
28766;SDS011;15921;52.034;20.650;2024-03-07T03:55:29;38.13;;;15.98;;
28766;SDS011;15921;52.034;20.650;2024-03-07T03:57:54;31.80;;;15.63;;
28766;SDS011;15921;52.034;20.650;2024-03-07T04:00:20;34.50;;;16.48;;
28766;SDS011;15921;52.034;20.650;2024-03-07T04:02:48;39.08;;;17.55;;
28766;SDS011;15921;52.034;20.650;2024-03-07T04:05:14;51.90;;;26.73;;
28766;SDS011;15921;52.034;20.650;2024-03-07T04:07:46;39.97;;;20.23;;
28766;SDS011;15921;52.034;20.650;2024-03-07T04:10:12;32.15;;;16.35;;
28766;SDS011;15921;52.034;20.650;2024-03-07T04:12:40;31.65;;;15.75;;
28766;SDS011;15921;52.034;20.650;2024-03-07T04:15:07;35.83;;;14.77;;
28766;SDS011;15921;52.034;20.650;2024-03-07T04:17:34;27.40;;;13.13;;
28766;SDS011;15921;52.034;20.650;2024-03-07T04:20:01;28.60;;;14.60;;
28766;SDS011;15921;52.034;20.650;2024-03-07T04:22:30;32.00;;;14.95;;
28766;SDS011;15921;52.034;20.650;2024-03-07T04:24:57;30.92;;;13.27;;
28766;SDS011;15921;52.034;20.650;2024-03-07T04:27:23;29.05;;;14.50;;
28766;SDS011;15921;52.034;20.650;2024-03-07T04:29:51;28.77;;;15.07;;
28766;SDS011;15921;52.034;20.650;2024-03-07T04:32:17;40.30;;;15.35;;
28766;SDS011;15921;52.034;20.650;2024-03-07T04:34:45;36.00;;;13.15;;
28766;SDS011;15921;52.034;20.650;2024-03-07T04:37:11;32.13;;;13.70;;
28766;SDS011;15921;52.034;20.650;2024-03-07T04:39:40;136.70;;;55.28;;
28766;SDS011;15921;52.034;20.650;2024-03-07T04:42:06;337.45;;;122.35;;
28766;SDS011;15921;52.034;20.650;2024-03-07T04:44:33;291.85;;;114.05;;
28766;SDS011;15921;52.034;20.650;2024-03-07T04:47:04;180.23;;;73.78;;
28766;SDS011;15921;52.034;20.650;2024-03-07T04:49:31;78.05;;;37.75;;
28766;SDS011;15921;52.034;20.650;2024-03-07T04:51:58;50.67;;;24.48;;
28766;SDS011;15921;52.034;20.650;2024-03-07T04:54:25;42.72;;;18.98;;
28766;SDS011;15921;52.034;20.650;2024-03-07T04:56:51;34.65;;;15.38;;
28766;SDS011;15921;52.034;20.650;2024-03-07T04:59:18;35.00;;;15.32;;
28766;SDS011;15921;52.034;20.650;2024-03-07T05:01:45;43.65;;;15.45;;
28766;SDS011;15921;52.034;20.650;2024-03-07T05:04:11;39.22;;;15.45;;
28766;SDS011;15921;52.034;20.650;2024-03-07T05:06:38;40.58;;;15.90;;
28766;SDS011;15921;52.034;20.650;2024-03-07T05:09:04;35.13;;;16.17;;
28766;SDS011;15921;52.034;20.650;2024-03-07T05:11:34;37.40;;;15.10;;
28766;SDS011;15921;52.034;20.650;2024-03-07T05:14:02;33.35;;;13.65;;
28766;SDS011;15921;52.034;20.650;2024-03-07T05:16:30;32.13;;;14.90;;
28766;SDS011;15921;52.034;20.650;2024-03-07T05:18:59;35.13;;;14.55;;
28766;SDS011;15921;52.034;20.650;2024-03-07T05:21:27;31.00;;;14.25;;
28766;SDS011;15921;52.034;20.650;2024-03-07T05:24:02;32.55;;;13.68;;
28766;SDS011;15921;52.034;20.650;2024-03-07T05:26:29;36.35;;;15.05;;
28766;SDS011;15921;52.034;20.650;2024-03-07T05:29:05;33.15;;;13.80;;
28766;SDS011;15921;52.034;20.650;2024-03-07T05:31:34;37.33;;;16.08;;
28766;SDS011;15921;52.034;20.650;2024-03-07T05:34:01;38.17;;;15.60;;
28766;SDS011;15921;52.034;20.650;2024-03-07T05:36:34;33.70;;;14.60;;
28766;SDS011;15921;52.034;20.650;2024-03-07T05:39:11;30.23;;;14.23;;
28766;SDS011;15921;52.034;20.650;2024-03-07T05:41:41;35.67;;;14.65;;
28766;SDS011;15921;52.034;20.650;2024-03-07T05:44:08;35.58;;;15.38;;
28766;SDS011;15921;52.034;20.650;2024-03-07T05:46:36;36.10;;;15.40;;
28766;SDS011;15921;52.034;20.650;2024-03-07T05:49:09;53.08;;;18.30;;
28766;SDS011;15921;52.034;20.650;2024-03-07T05:51:35;36.65;;;15.52;;
28766;SDS011;15921;52.034;20.650;2024-03-07T05:54:01;38.75;;;14.88;;
28766;SDS011;15921;52.034;20.650;2024-03-07T05:56:32;36.33;;;16.00;;
28766;SDS011;15921;52.034;20.650;2024-03-07T05:59:03;40.95;;;17.55;;
28766;SDS011;15921;52.034;20.650;2024-03-07T06:01:33;41.65;;;16.50;;
28766;SDS011;15921;52.034;20.650;2024-03-07T06:04:02;49.83;;;17.33;;
28766;SDS011;15921;52.034;20.650;2024-03-07T06:06:30;41.78;;;17.13;;
28766;SDS011;15921;52.034;20.650;2024-03-07T06:08:58;46.35;;;18.65;;
28766;SDS011;15921;52.034;20.650;2024-03-07T06:11:25;46.20;;;17.67;;
28766;SDS011;15921;52.034;20.650;2024-03-07T06:13:51;43.75;;;16.75;;
28766;SDS011;15921;52.034;20.650;2024-03-07T06:16:18;48.40;;;18.00;;
28766;SDS011;15921;52.034;20.650;2024-03-07T06:18:45;39.60;;;17.27;;
28766;SDS011;15921;52.034;20.650;2024-03-07T06:21:12;42.00;;;17.33;;
28766;SDS011;15921;52.034;20.650;2024-03-07T06:23:38;49.50;;;20.20;;
28766;SDS011;15921;52.034;20.650;2024-03-07T06:26:04;40.55;;;18.13;;
28766;SDS011;15921;52.034;20.650;2024-03-07T06:28:38;45.35;;;19.45;;
28766;SDS011;15921;52.034;20.650;2024-03-07T06:31:04;49.05;;;20.08;;
28766;SDS011;15921;52.034;20.650;2024-03-07T06:33:33;50.92;;;19.88;;
28766;SDS011;15921;52.034;20.650;2024-03-07T06:35:59;44.42;;;19.45;;
28766;SDS011;15921;52.034;20.650;2024-03-07T06:38:26;47.92;;;18.98;;
28766;SDS011;15921;52.034;20.650;2024-03-07T06:40:52;41.47;;;18.52;;
28766;SDS011;15921;52.034;20.650;2024-03-07T06:43:18;46.35;;;18.55;;
28766;SDS011;15921;52.034;20.650;2024-03-07T06:45:44;51.70;;;20.73;;
28766;SDS011;15921;52.034;20.650;2024-03-07T06:48:11;42.22;;;19.63;;
28766;SDS011;15921;52.034;20.650;2024-03-07T06:50:39;52.90;;;20.27;;
28766;SDS011;15921;52.034;20.650;2024-03-07T06:53:05;51.95;;;19.80;;
28766;SDS011;15921;52.034;20.650;2024-03-07T06:55:32;46.67;;;20.10;;
28766;SDS011;15921;52.034;20.650;2024-03-07T06:58:01;45.42;;;19.52;;
28766;SDS011;15921;52.034;20.650;2024-03-07T07:00:30;46.13;;;20.02;;
28766;SDS011;15921;52.034;20.650;2024-03-07T07:02:57;49.60;;;18.83;;
28766;SDS011;15921;52.034;20.650;2024-03-07T07:05:23;42.47;;;18.77;;
28766;SDS011;15921;52.034;20.650;2024-03-07T07:07:48;48.70;;;19.58;;
28766;SDS011;15921;52.034;20.650;2024-03-07T07:10:14;46.38;;;19.48;;
28766;SDS011;15921;52.034;20.650;2024-03-07T07:12:46;43.58;;;19.02;;
28766;SDS011;15921;52.034;20.650;2024-03-07T07:15:17;47.45;;;20.10;;
28766;SDS011;15921;52.034;20.650;2024-03-07T07:17:45;47.00;;;19.48;;
28766;SDS011;15921;52.034;20.650;2024-03-07T07:20:12;38.22;;;19.08;;
28766;SDS011;15921;52.034;20.650;2024-03-07T07:22:41;49.40;;;21.33;;
28766;SDS011;15921;52.034;20.650;2024-03-07T07:25:08;51.30;;;21.00;;
28766;SDS011;15921;52.034;20.650;2024-03-07T07:27:44;41.83;;;18.55;;
28766;SDS011;15921;52.034;20.650;2024-03-07T07:30:12;38.88;;;19.00;;
28766;SDS011;15921;52.034;20.650;2024-03-07T07:32:39;39.05;;;18.27;;
28766;SDS011;15921;52.034;20.650;2024-03-07T07:35:06;46.55;;;19.05;;
28766;SDS011;15921;52.034;20.650;2024-03-07T07:37:44;40.50;;;19.20;;
28766;SDS011;15921;52.034;20.650;2024-03-07T07:40:12;44.40;;;19.58;;
28766;SDS011;15921;52.034;20.650;2024-03-07T07:42:43;44.58;;;19.73;;
28766;SDS011;15921;52.034;20.650;2024-03-07T07:45:11;46.20;;;20.23;;
28766;SDS011;15921;52.034;20.650;2024-03-07T07:47:38;49.22;;;20.13;;
28766;SDS011;15921;52.034;20.650;2024-03-07T07:50:06;41.50;;;19.08;;
28766;SDS011;15921;52.034;20.650;2024-03-07T07:52:43;40.42;;;19.73;;
28766;SDS011;15921;52.034;20.650;2024-03-07T07:55:11;53.63;;;21.15;;
28766;SDS011;15921;52.034;20.650;2024-03-07T08:00:18;45.17;;;20.05;;
28766;SDS011;15921;52.034;20.650;2024-03-07T08:05:17;46.42;;;19.90;;
28766;SDS011;15921;52.034;20.650;2024-03-07T08:07:48;46.88;;;19.95;;
28766;SDS011;15921;52.034;20.650;2024-03-07T08:10:21;43.80;;;19.17;;
28766;SDS011;15921;52.034;20.650;2024-03-07T08:12:49;45.75;;;18.52;;
28766;SDS011;15921;52.034;20.650;2024-03-07T08:15:14;45.35;;;19.05;;
28766;SDS011;15921;52.034;20.650;2024-03-07T08:17:42;36.00;;;16.98;;
28766;SDS011;15921;52.034;20.650;2024-03-07T08:20:18;42.03;;;17.25;;
28766;SDS011;15921;52.034;20.650;2024-03-07T08:22:46;39.30;;;16.25;;
28766;SDS011;15921;52.034;20.650;2024-03-07T08:25:15;32.50;;;15.52;;
28766;SDS011;15921;52.034;20.650;2024-03-07T08:27:43;31.23;;;14.27;;
28766;SDS011;15921;52.034;20.650;2024-03-07T08:30:11;25.40;;;12.35;;
28766;SDS011;15921;52.034;20.650;2024-03-07T08:32:40;33.78;;;13.35;;
28766;SDS011;15921;52.034;20.650;2024-03-07T08:35:07;31.60;;;12.48;;
28766;SDS011;15921;52.034;20.650;2024-03-07T08:37:37;22.38;;;11.27;;
28766;SDS011;15921;52.034;20.650;2024-03-07T08:40:04;29.77;;;11.88;;
28766;SDS011;15921;52.034;20.650;2024-03-07T08:42:32;26.70;;;11.95;;
28766;SDS011;15921;52.034;20.650;2024-03-07T08:44:59;23.52;;;11.38;;
28766;SDS011;15921;52.034;20.650;2024-03-07T08:49:57;26.52;;;12.75;;
28766;SDS011;15921;52.034;20.650;2024-03-07T08:52:23;25.25;;;11.57;;
28766;SDS011;15921;52.034;20.650;2024-03-07T08:54:48;25.75;;;11.32;;
28766;SDS011;15921;52.034;20.650;2024-03-07T08:57:14;25.80;;;12.10;;
28766;SDS011;15921;52.034;20.650;2024-03-07T08:59:42;24.25;;;12.15;;
28766;SDS011;15921;52.034;20.650;2024-03-07T09:02:08;27.52;;;13.23;;
28766;SDS011;15921;52.034;20.650;2024-03-07T09:04:37;28.38;;;12.55;;
28766;SDS011;15921;52.034;20.650;2024-03-07T09:07:04;26.23;;;12.40;;
28766;SDS011;15921;52.034;20.650;2024-03-07T09:09:31;23.10;;;11.77;;
28766;SDS011;15921;52.034;20.650;2024-03-07T09:11:57;27.38;;;13.00;;
28766;SDS011;15921;52.034;20.650;2024-03-07T09:14:23;31.08;;;14.05;;
28766;SDS011;15921;52.034;20.650;2024-03-07T09:16:48;27.55;;;12.85;;
28766;SDS011;15921;52.034;20.650;2024-03-07T09:19:14;31.02;;;13.25;;
28766;SDS011;15921;52.034;20.650;2024-03-07T09:21:45;25.02;;;11.43;;
28766;SDS011;15921;52.034;20.650;2024-03-07T09:24:15;28.80;;;12.82;;
28766;SDS011;15921;52.034;20.650;2024-03-07T09:26:41;29.52;;;11.20;;
28766;SDS011;15921;52.034;20.650;2024-03-07T09:29:07;27.33;;;10.77;;
28766;SDS011;15921;52.034;20.650;2024-03-07T09:31:33;26.38;;;11.00;;
28766;SDS011;15921;52.034;20.650;2024-03-07T09:33:59;21.42;;;11.07;;
28766;SDS011;15921;52.034;20.650;2024-03-07T09:36:25;25.70;;;10.70;;
28766;SDS011;15921;52.034;20.650;2024-03-07T09:38:51;23.15;;;10.88;;
28766;SDS011;15921;52.034;20.650;2024-03-07T09:41:16;32.05;;;14.93;;
28766;SDS011;15921;52.034;20.650;2024-03-07T09:43:46;22.52;;;11.10;;
28766;SDS011;15921;52.034;20.650;2024-03-07T09:46:16;24.42;;;10.18;;
28766;SDS011;15921;52.034;20.650;2024-03-07T09:48:43;20.90;;;11.20;;
28766;SDS011;15921;52.034;20.650;2024-03-07T09:51:09;27.42;;;11.43;;
28766;SDS011;15921;52.034;20.650;2024-03-07T09:53:37;21.67;;;10.95;;
28766;SDS011;15921;52.034;20.650;2024-03-07T09:56:04;22.92;;;9.75;;
28766;SDS011;15921;52.034;20.650;2024-03-07T09:58:31;25.40;;;10.85;;
28766;SDS011;15921;52.034;20.650;2024-03-07T10:00:59;22.38;;;10.18;;
28766;SDS011;15921;52.034;20.650;2024-03-07T10:03:29;23.05;;;9.93;;
28766;SDS011;15921;52.034;20.650;2024-03-07T10:05:55;23.17;;;10.90;;
28766;SDS011;15921;52.034;20.650;2024-03-07T10:08:23;23.80;;;10.30;;
28766;SDS011;15921;52.034;20.650;2024-03-07T10:10:51;19.27;;;10.85;;
28766;SDS011;15921;52.034;20.650;2024-03-07T10:13:19;19.23;;;10.02;;
28766;SDS011;15921;52.034;20.650;2024-03-07T10:15:47;24.95;;;9.48;;
28766;SDS011;15921;52.034;20.650;2024-03-07T10:18:13;22.17;;;10.52;;
28766;SDS011;15921;52.034;20.650;2024-03-07T10:20:41;19.70;;;10.23;;
28766;SDS011;15921;52.034;20.650;2024-03-07T10:23:07;18.27;;;9.35;;
28766;SDS011;15921;52.034;20.650;2024-03-07T10:25:33;17.92;;;9.27;;
28766;SDS011;15921;52.034;20.650;2024-03-07T10:27:59;21.58;;;9.32;;
28766;SDS011;15921;52.034;20.650;2024-03-07T10:30:28;19.50;;;9.77;;
28766;SDS011;15921;52.034;20.650;2024-03-07T10:32:57;22.92;;;10.20;;
28766;SDS011;15921;52.034;20.650;2024-03-07T10:35:24;17.20;;;8.43;;
28766;SDS011;15921;52.034;20.650;2024-03-07T10:37:51;23.13;;;8.63;;
28766;SDS011;15921;52.034;20.650;2024-03-07T10:40:25;19.08;;;8.15;;
28766;SDS011;15921;52.034;20.650;2024-03-07T10:42:54;14.50;;;7.70;;
28766;SDS011;15921;52.034;20.650;2024-03-07T10:45:22;15.48;;;8.38;;
28766;SDS011;15921;52.034;20.650;2024-03-07T10:47:58;20.58;;;8.75;;
28766;SDS011;15921;52.034;20.650;2024-03-07T10:55:53;20.20;;;8.35;;
28766;SDS011;15921;52.034;20.650;2024-03-07T11:01:07;15.73;;;7.82;;
28766;SDS011;15921;52.034;20.650;2024-03-07T11:03:36;15.00;;;7.80;;
28766;SDS011;15921;52.034;20.650;2024-03-07T11:06:02;18.67;;;7.82;;
28766;SDS011;15921;52.034;20.650;2024-03-07T11:08:32;11.23;;;6.63;;
28766;SDS011;15921;52.034;20.650;2024-03-07T11:10:59;17.20;;;7.68;;
28766;SDS011;15921;52.034;20.650;2024-03-07T11:13:26;12.43;;;6.95;;
28766;SDS011;15921;52.034;20.650;2024-03-07T11:15:53;13.90;;;7.43;;
28766;SDS011;15921;52.034;20.650;2024-03-07T11:18:22;13.80;;;6.55;;
28766;SDS011;15921;52.034;20.650;2024-03-07T11:20:51;14.32;;;6.90;;
28766;SDS011;15921;52.034;20.650;2024-03-07T11:23:25;14.98;;;7.82;;
28766;SDS011;15921;52.034;20.650;2024-03-07T11:26:02;20.00;;;8.68;;
28766;SDS011;15921;52.034;20.650;2024-03-07T11:28:35;15.13;;;7.47;;
28766;SDS011;15921;52.034;20.650;2024-03-07T11:31:44;16.85;;;8.18;;
28766;SDS011;15921;52.034;20.650;2024-03-07T11:36:46;13.02;;;6.47;;
28766;SDS011;15921;52.034;20.650;2024-03-07T11:44:55;16.38;;;6.70;;
28766;SDS011;15921;52.034;20.650;2024-03-07T11:47:21;11.88;;;7.07;;
28766;SDS011;15921;52.034;20.650;2024-03-07T11:49:53;14.05;;;6.60;;
28766;SDS011;15921;52.034;20.650;2024-03-07T11:52:23;10.82;;;6.60;;
28766;SDS011;15921;52.034;20.650;2024-03-07T11:54:49;12.57;;;5.70;;
28766;SDS011;15921;52.034;20.650;2024-03-07T11:57:18;13.82;;;6.68;;
28766;SDS011;15921;52.034;20.650;2024-03-07T11:59:44;12.55;;;6.28;;
28766;SDS011;15921;52.034;20.650;2024-03-07T12:02:17;15.45;;;6.75;;
28766;SDS011;15921;52.034;20.650;2024-03-07T12:04:49;11.82;;;6.95;;
28766;SDS011;15921;52.034;20.650;2024-03-07T12:07:15;12.02;;;5.72;;
28766;SDS011;15921;52.034;20.650;2024-03-07T12:09:47;12.30;;;6.60;;
28766;SDS011;15921;52.034;20.650;2024-03-07T12:12:19;12.40;;;5.82;;
28766;SDS011;15921;52.034;20.650;2024-03-07T12:14:55;10.43;;;5.70;;
28766;SDS011;15921;52.034;20.650;2024-03-07T12:17:21;12.18;;;6.88;;
28766;SDS011;15921;52.034;20.650;2024-03-07T12:19:48;14.65;;;6.80;;
28766;SDS011;15921;52.034;20.650;2024-03-07T12:22:20;17.55;;;6.50;;
28766;SDS011;15921;52.034;20.650;2024-03-07T12:25:01;13.10;;;6.25;;
28766;SDS011;15921;52.034;20.650;2024-03-07T12:27:28;11.88;;;6.93;;
28766;SDS011;15921;52.034;20.650;2024-03-07T12:29:54;11.73;;;6.22;;
28766;SDS011;15921;52.034;20.650;2024-03-07T12:32:20;11.00;;;6.40;;
28766;SDS011;15921;52.034;20.650;2024-03-07T12:34:46;10.70;;;6.28;;
28766;SDS011;15921;52.034;20.650;2024-03-07T12:37:12;17.02;;;6.10;;
28766;SDS011;15921;52.034;20.650;2024-03-07T12:39:42;13.75;;;6.90;;
28766;SDS011;15921;52.034;20.650;2024-03-07T12:42:12;13.73;;;6.75;;
28766;SDS011;15921;52.034;20.650;2024-03-07T12:44:40;8.05;;;5.57;;
28766;SDS011;15921;52.034;20.650;2024-03-07T12:49:41;11.93;;;5.60;;
28766;SDS011;15921;52.034;20.650;2024-03-07T12:52:08;10.02;;;6.18;;
28766;SDS011;15921;52.034;20.650;2024-03-07T12:54:37;10.88;;;6.05;;
28766;SDS011;15921;52.034;20.650;2024-03-07T12:57:09;30.52;;;12.65;;
28766;SDS011;15921;52.034;20.650;2024-03-07T12:59:35;16.88;;;8.13;;
28766;SDS011;15921;52.034;20.650;2024-03-07T13:02:04;9.07;;;6.10;;
28766;SDS011;15921;52.034;20.650;2024-03-07T13:04:33;10.20;;;5.18;;
28766;SDS011;15921;52.034;20.650;2024-03-07T13:06:59;12.90;;;5.90;;
28766;SDS011;15921;52.034;20.650;2024-03-07T13:09:26;9.98;;;5.70;;
28766;SDS011;15921;52.034;20.650;2024-03-07T13:11:53;10.07;;;5.82;;
28766;SDS011;15921;52.034;20.650;2024-03-07T13:14:19;11.20;;;6.00;;
28766;SDS011;15921;52.034;20.650;2024-03-07T13:16:45;17.95;;;7.07;;
28766;SDS011;15921;52.034;20.650;2024-03-07T13:19:11;10.07;;;6.43;;
28766;SDS011;15921;52.034;20.650;2024-03-07T13:21:37;10.48;;;5.72;;
28766;SDS011;15921;52.034;20.650;2024-03-07T13:24:04;23.23;;;6.15;;
28766;SDS011;15921;52.034;20.650;2024-03-07T13:26:31;13.77;;;5.93;;
28766;SDS011;15921;52.034;20.650;2024-03-07T13:28:57;11.30;;;6.57;;
28766;SDS011;15921;52.034;20.650;2024-03-07T13:31:26;9.45;;;5.68;;
28766;SDS011;15921;52.034;20.650;2024-03-07T13:33:54;10.60;;;6.03;;
28766;SDS011;15921;52.034;20.650;2024-03-07T13:36:20;13.82;;;6.43;;
28766;SDS011;15921;52.034;20.650;2024-03-07T13:38:51;11.23;;;5.63;;
28766;SDS011;15921;52.034;20.650;2024-03-07T13:41:20;10.07;;;5.80;;
28766;SDS011;15921;52.034;20.650;2024-03-07T13:43:46;10.82;;;6.25;;
28766;SDS011;15921;52.034;20.650;2024-03-07T13:46:13;11.80;;;7.82;;
28766;SDS011;15921;52.034;20.650;2024-03-07T13:48:40;12.93;;;6.65;;
28766;SDS011;15921;52.034;20.650;2024-03-07T13:51:09;15.30;;;7.38;;
28766;SDS011;15921;52.034;20.650;2024-03-07T13:53:35;14.27;;;7.40;;
28766;SDS011;15921;52.034;20.650;2024-03-07T14:16:08;14.77;;;5.68;;
28766;SDS011;15921;52.034;20.650;2024-03-07T14:25:54;12.32;;;6.18;;
28766;SDS011;15921;52.034;20.650;2024-03-07T14:30:52;9.82;;;5.65;;
28766;SDS011;15921;52.034;20.650;2024-03-07T14:33:25;12.32;;;6.82;;
28766;SDS011;15921;52.034;20.650;2024-03-07T14:41:08;12.63;;;6.32;;
28766;SDS011;15921;52.034;20.650;2024-03-07T14:43:37;10.68;;;6.07;;
28766;SDS011;15921;52.034;20.650;2024-03-07T14:46:03;11.30;;;5.70;;
28766;SDS011;15921;52.034;20.650;2024-03-07T14:48:30;11.50;;;6.20;;
28766;SDS011;15921;52.034;20.650;2024-03-07T14:50:57;9.52;;;5.93;;
28766;SDS011;15921;52.034;20.650;2024-03-07T14:53:23;12.32;;;6.63;;
28766;SDS011;15921;52.034;20.650;2024-03-07T14:55:50;11.40;;;6.43;;
28766;SDS011;15921;52.034;20.650;2024-03-07T14:58:15;10.93;;;6.57;;
28766;SDS011;15921;52.034;20.650;2024-03-07T15:00:41;10.45;;;5.60;;
28766;SDS011;15921;52.034;20.650;2024-03-07T15:03:11;15.60;;;5.68;;
28766;SDS011;15921;52.034;20.650;2024-03-07T15:05:40;13.45;;;5.65;;
28766;SDS011;15921;52.034;20.650;2024-03-07T15:08:07;13.48;;;5.90;;
28766;SDS011;15921;52.034;20.650;2024-03-07T15:10:35;9.60;;;5.07;;
28766;SDS011;15921;52.034;20.650;2024-03-07T15:13:04;12.10;;;6.63;;
28766;SDS011;15921;52.034;20.650;2024-03-07T15:16:02;13.77;;;6.38;;